Time;durP1;ratioP1;P1;durP2;ratioP2;P2;SDS_P1;SDS_P2;PMS_P1;PMS_P2;Temp;Humidity;BMP_temperature;BMP_pressure;BME280_temperature;BME280_humidity;BME280_pressure;Samples;Min_cycle;Max_cycle;Signal;HPM_P1;HPM_P2
2022/08/21 00:01:43;;;;;;;13.95;3.92;;;;;;;20.57;54.95;101202.56;5057547;28;20064;-70
2022/08/21 00:04:11;;;;;;;11.68;3.42;;;;;;;20.75;54.64;101206.50;5054504;28;20084;-68
2022/08/21 00:06:49;;;;;;;12.85;3.35;;;;;;;20.80;54.56;101204.22;5021408;28;20053;-68
2022/08/21 00:09:18;;;;;;;13.75;3.50;;;;;;;20.77;54.48;101202.16;5020263;28;20076;-68
2022/08/21 00:11:45;;;;;;;12.80;3.90;;;;;;;20.64;54.87;101197.09;5060005;28;20057;-68
2022/08/21 00:14:13;;;;;;;10.65;2.67;;;;;;;20.76;54.73;101205.34;5052897;28;20480;-68
2022/08/21 00:16:41;;;;;;;11.68;3.00;;;;;;;20.75;54.79;101198.09;5070046;28;20431;-68
2022/08/21 00:19:08;;;;;;;15.00;3.45;;;;;;;20.69;54.96;101199.59;5054544;28;20056;-68
2022/08/21 00:21:36;;;;;;;10.98;2.80;;;;;;;20.75;54.94;101195.31;5051479;28;20049;-67
2022/08/21 00:24:04;;;;;;;12.65;3.10;;;;;;;20.85;54.67;101177.94;5040176;28;20053;-68
2022/08/21 00:26:32;;;;;;;11.57;3.25;;;;;;;20.90;54.22;101181.22;5064888;28;20499;-68
2022/08/21 00:28:59;;;;;;;12.15;3.22;;;;;;;20.95;54.46;101180.94;5053435;28;20048;-68
2022/08/21 00:31:27;;;;;;;14.10;3.25;;;;;;;20.97;54.03;101177.75;5054112;28;20049;-68
2022/08/21 00:33:55;;;;;;;15.57;3.40;;;;;;;21.13;53.83;101173.66;5052466;28;20481;-68
2022/08/21 00:36:27;;;;;;;11.40;3.03;;;;;;;21.06;53.82;101176.34;5059502;28;20052;-67
2022/08/21 00:38:56;;;;;;;14.60;3.30;;;;;;;21.14;53.50;101182.88;5074856;28;20064;-68
2022/08/21 00:41:23;;;;;;;11.80;3.10;;;;;;;21.12;53.66;101177.66;5055254;28;20060;-68
2022/08/21 00:44:07;;;;;;;11.90;2.80;;;;;;;21.15;53.71;101179.72;5034929;28;20053;-67
2022/08/21 00:46:36;;;;;;;13.57;3.33;;;;;;;21.22;53.48;101181.81;5056151;28;20063;-68
2022/08/21 00:49:05;;;;;;;12.52;2.97;;;;;;;21.18;53.67;101184.56;5073402;28;20048;-68
2022/08/21 00:51:41;;;;;;;10.32;3.13;;;;;;;21.17;53.78;101182.13;5058484;28;20059;-68
2022/08/21 00:54:10;;;;;;;12.25;3.33;;;;;;;21.18;53.80;101176.16;5054357;28;20064;-68
2022/08/21 00:56:48;;;;;;;10.90;2.85;;;;;;;21.13;53.79;101173.66;5052556;28;20063;-68
2022/08/21 00:59:19;;;;;;;16.42;3.67;;;;;;;20.99;54.52;101178.22;5053569;28;20056;-67
2022/08/21 01:01:47;;;;;;;10.98;2.85;;;;;;;21.15;54.03;101179.72;5048921;28;20412;-68
2022/08/21 01:04:15;;;;;;;13.40;3.30;;;;;;;20.97;54.67;101180.56;5054017;28;20053;-69
2022/08/21 01:06:43;;;;;;;11.50;3.15;;;;;;;20.92;55.04;101181.66;5050872;28;20052;-69
2022/08/21 01:09:11;;;;;;;10.10;2.80;;;;;;;21.07;54.38;101174.34;5053162;28;20041;-68
2022/08/21 01:11:41;;;;;;;13.18;3.40;;;;;;;21.00;54.52;101177.03;5054037;28;20056;-69
2022/08/21 01:14:11;;;;;;;14.30;2.85;;;;;;;20.95;54.81;101180.09;5052698;28;20080;-69
2022/08/21 01:16:44;;;;;;;10.75;2.75;;;;;;;20.78;55.73;101180.59;5047312;28;20409;-69
2022/08/21 01:19:11;;;;;;;12.38;2.75;;;;;;;20.85;55.28;101180.72;5073080;28;20067;-68
2022/08/21 01:21:39;;;;;;;10.82;2.88;;;;;;;21.02;54.88;101172.69;5055962;28;20064;-68
2022/08/21 01:24:06;;;;;;;12.15;3.08;;;;;;;21.04;54.67;101172.31;5037382;28;20057;-69
2022/08/21 01:26:35;;;;;;;10.02;2.83;;;;;;;21.12;54.42;101174.84;5056559;28;20056;-69
2022/08/21 01:29:17;;;;;;;9.95;2.83;;;;;;;21.06;54.45;101176.34;5074176;28;20049;-68
2022/08/21 01:31:44;;;;;;;13.35;2.55;;;;;;;20.85;55.35;101184.31;5051987;28;20053;-68
2022/08/21 01:34:11;;;;;;;13.35;3.38;;;;;;;20.68;55.84;101189.56;5067321;28;20107;-68
2022/08/21 01:36:40;;;;;;;13.20;3.45;;;;;;;20.39;57.34;101188.19;5056242;28;20060;-67
2022/08/21 01:39:07;;;;;;;13.27;3.60;;;;;;;20.15;58.24;101191.25;5053964;28;20051;-68
2022/08/21 01:41:34;;;;;;;14.07;3.88;;;;;;;20.40;58.15;101192.59;5068223;28;20048;-67
2022/08/21 01:44:02;;;;;;;12.25;3.90;;;;;;;20.29;58.06;101199.97;5058488;28;20056;-67
2022/08/21 01:46:29;;;;;;;11.10;3.92;;;;;;;20.31;58.51;101188.41;5065350;28;20052;-68
2022/08/21 01:48:57;;;;;;;12.48;4.00;;;;;;;20.31;58.36;101185.63;5063186;28;20057;-68
2022/08/21 01:51:25;;;;;;;13.88;4.07;;;;;;;20.20;58.44;101182.59;5057646;28;20053;-69
2022/08/21 01:53:52;;;;;;;12.13;3.63;;;;;;;19.97;59.52;101187.25;5056969;28;20072;-68
2022/08/21 01:56:19;;;;;;;19.40;4.35;;;;;;;19.80;60.22;101188.47;5057235;28;20048;-69
2022/08/21 01:58:47;;;;;;;11.52;4.03;;;;;;;19.66;61.03;101187.31;5066159;28;20057;-69
2022/08/21 02:01:15;;;;;;;11.15;3.83;;;;;;;19.91;60.11;101177.53;5057241;28;20049;-68
2022/08/21 02:03:42;;;;;;;10.07;3.67;;;;;;;19.74;60.43;101187.13;5056083;28;20052;-67
2022/08/21 02:06:14;;;;;;;12.40;3.88;;;;;;;20.00;59.85;101178.09;5056446;28;20550;-68
2022/08/21 02:08:41;;;;;;;13.68;4.68;;;;;;;19.85;60.58;101179.78;5056139;28;20060;-67
2022/08/21 02:11:09;;;;;;;12.15;3.95;;;;;;;19.88;60.06;101179.06;5056148;28;20048;-68
2022/08/21 02:13:36;;;;;;;13.07;4.43;;;;;;;20.03;60.40;101171.81;5056793;28;20044;-68
2022/08/21 02:16:04;;;;;;;12.00;3.75;;;;;;;19.97;60.10;101176.88;5056819;28;20053;-69
2022/08/21 02:18:31;;;;;;;14.85;4.75;;;;;;;20.12;59.65;101169.59;5057606;28;20049;-67
2022/08/21 02:20:59;;;;;;;12.05;4.40;;;;;;;19.98;60.42;101170.09;5076543;28;20052;-68
2022/08/21 02:23:26;;;;;;;13.95;3.83;;;;;;;19.93;60.57;101169.56;5055805;28;20072;-68
2022/08/21 02:25:58;;;;;;;13.07;4.38;;;;;;;19.85;60.56;101168.59;5047491;28;20057;-68
2022/08/21 02:28:26;;;;;;;11.88;3.83;;;;;;;19.79;61.39;101169.22;5055366;28;20052;-68
2022/08/21 02:30:55;;;;;;;10.77;2.97;;;;;;;19.61;61.74;101165.22;5056574;28;20044;-68
2022/08/21 02:33:23;;;;;;;11.43;3.50;;;;;;;19.85;60.43;101171.41;5072042;28;20049;-69
2022/08/21 02:35:51;;;;;;;10.02;2.75;;;;;;;19.98;59.72;101167.28;5074908;28;20052;-69
2022/08/21 02:38:23;;;;;;;13.23;3.97;;;;;;;19.72;60.47;101174.66;5082968;28;20072;-69
2022/08/21 02:40:51;;;;;;;11.68;2.58;;;;;;;19.62;61.39;101167.66;5056596;28;20052;-68
2022/08/21 02:43:20;;;;;;;10.48;3.03;;;;;;;19.72;60.90;101164.28;5055283;28;20052;-68
2022/08/21 02:45:49;;;;;;;14.13;3.08;;;;;;;19.90;60.23;101168.31;5041343;28;20060;-67
2022/08/21 02:48:19;;;;;;;12.30;2.70;;;;;;;19.87;59.95;101171.03;5068948;28;20051;-68
2022/08/21 02:50:47;;;;;;;;;;;;;;;19.88;59.90;101181.03;5072360;28;20089;-68
2022/08/21 02:53:16;;;;;;;9.93;2.67;;;;;;;19.89;59.95;101174.28;5055587;28;19921;-68
2022/08/21 02:55:46;;;;;;;11.07;3.30;;;;;;;19.90;59.64;101185.09;5054936;28;20104;-68
2022/08/21 02:58:16;;;;;;;10.07;2.90;;;;;;;20.03;59.52;101174.59;5052785;28;20055;-68
2022/08/21 03:00:43;;;;;;;10.88;3.10;;;;;;;20.05;59.09;101175.84;5054229;28;20059;-68
2022/08/21 03:03:12;;;;;;;12.07;2.80;;;;;;;20.04;59.16;101168.63;5055855;28;20144;-68
2022/08/21 03:05:39;;;;;;;13.60;2.53;;;;;;;20.06;59.13;101168.28;5054655;28;20053;-68
2022/08/21 03:08:11;;;;;;;13.77;3.10;;;;;;;19.98;59.19;101167.28;5053257;28;20041;-69
2022/08/21 03:10:41;;;;;;;16.40;2.65;;;;;;;19.80;59.60;101168.91;5071413;28;20072;-68
2022/08/21 03:13:09;;;;;;;14.48;2.83;;;;;;;19.75;60.09;101171.16;5058634;28;20047;-68
2022/08/21 03:15:37;;;;;;;9.27;2.60;;;;;;;19.86;59.47;101172.19;5074540;28;20055;-68
2022/08/21 03:18:05;;;;;;;7.65;2.22;;;;;;;20.00;59.48;101175.31;5066884;28;20693;-68
2022/08/21 03:20:33;;;;;;;9.82;2.40;;;;;;;20.04;59.20;101171.44;5053939;28;20045;-68
2022/08/21 03:23:03;;;;;;;17.17;2.65;;;;;;;19.95;59.12;101172.81;5053649;28;20059;-69
2022/08/21 03:25:38;;;;;;;10.45;2.40;;;;;;;19.80;59.42;101170.88;5053372;28;20056;-69
2022/08/21 03:28:14;;;;;;;12.70;2.47;;;;;;;19.93;59.12;101161.16;5058757;28;20056;-69
2022/08/21 03:30:50;;;;;;;13.80;2.45;;;;;;;20.06;59.04;101163.50;5066171;28;20496;-68
2022/08/21 03:33:18;;;;;;;11.63;2.17;;;;;;;20.05;58.92;101156.25;5037758;28;20052;-70
2022/08/21 03:35:52;;;;;;;11.48;2.55;;;;;;;19.97;59.28;101156.47;5055055;28;20048;-68
2022/08/21 03:38:20;;;;;;;8.82;2.55;;;;;;;20.03;58.91;101147.44;5037533;28;20057;-68
2022/08/21 03:40:53;;;;;;;10.00;2.45;;;;;;;19.99;58.96;101137.34;5069679;28;20052;-66
2022/08/21 03:43:20;;;;;;;10.20;2.85;;;;;;;19.99;59.38;101138.16;5055444;28;20053;-67
2022/08/21 03:45:48;;;;;;;13.07;3.00;;;;;;;19.96;59.40;101133.28;5057211;28;20059;-67
2022/08/21 03:48:15;;;;;;;11.27;2.58;;;;;;;19.86;59.48;101128.28;5073555;28;20518;-68
2022/08/21 03:50:43;;;;;;;16.58;2.90;;;;;;;19.83;60.15;101125.41;5067895;28;20056;-67
2022/08/21 03:53:12;;;;;;;9.98;2.55;;;;;;;19.80;60.26;101124.16;5055318;28;20053;-67
2022/08/21 03:55:46;;;;;;;10.85;2.90;;;;;;;19.91;59.73;101128.00;5053333;28;20053;-66
2022/08/21 03:58:15;;;;;;;11.10;2.70;;;;;;;19.88;59.44;101128.72;5054685;28;20056;-67
2022/08/21 04:00:46;;;;;;;10.23;2.95;;;;;;;19.84;59.71;101133.41;5059428;28;20056;-67
2022/08/21 04:03:13;;;;;;;11.55;2.85;;;;;;;19.63;60.79;101129.34;5053929;28;20061;-67
2022/08/21 04:05:41;;;;;;;12.70;2.55;;;;;;;19.54;61.25;101131.53;5054735;28;20438;-67
2022/08/21 04:08:08;;;;;;;11.50;2.78;;;;;;;19.31;61.66;101130.56;5059853;28;20059;-68
2022/08/21 04:10:37;;;;;;;14.98;3.05;;;;;;;19.43;61.46;101128.47;5069831;28;20049;-67
2022/08/21 04:13:06;;;;;;;10.38;2.45;;;;;;;19.68;61.05;101121.47;5054937;28;20056;-67
2022/08/21 04:15:34;;;;;;;8.90;2.50;;;;;;;19.61;60.92;101115.75;5054263;28;20076;-67
2022/08/21 04:18:01;;;;;;;9.98;2.67;;;;;;;19.29;62.30;101130.91;5053518;28;20044;-67
2022/08/21 04:20:29;;;;;;;11.23;2.70;;;;;;;19.28;62.60;101125.69;5054185;28;20429;-68
2022/08/21 04:22:56;;;;;;;9.10;2.65;;;;;;;19.24;62.82;101130.34;5069739;28;20045;-66
2022/08/21 04:25:27;;;;;;;16.95;3.15;;;;;;;19.15;63.23;101141.72;5054163;28;20053;-66
2022/08/21 04:27:54;;;;;;;13.80;2.90;;;;;;;19.11;63.70;101145.59;5054684;28;20048;-66
2022/08/21 04:30:22;;;;;;;14.25;3.20;;;;;;;19.24;63.10;101150.72;5052543;28;20614;-66
2022/08/21 04:32:56;;;;;;;15.00;3.10;;;;;;;19.40;62.90;101153.53;5071638;28;20051;-67
2022/08/21 04:35:26;;;;;;;11.32;3.58;;;;;;;19.37;63.21;101155.06;5052896;28;20140;-66
2022/08/21 04:37:54;;;;;;;14.60;3.35;;;;;;;19.39;62.73;101151.91;5052717;28;20485;-67
2022/08/21 04:40:23;;;;;;;13.35;3.55;;;;;;;19.43;62.92;101150.00;5054026;28;20052;-66
2022/08/21 04:43:02;;;;;;;14.38;3.20;;;;;;;19.53;62.49;101157.84;5054322;28;20048;-66
2022/08/21 04:45:35;;;;;;;12.13;2.88;;;;;;;19.45;63.01;101162.47;5053890;28;20747;-66
2022/08/21 04:48:04;;;;;;;12.75;3.22;;;;;;;19.36;63.22;101163.81;5069714;28;20057;-66
2022/08/21 04:50:47;;;;;;;11.30;3.03;;;;;;;19.13;63.80;101169.19;5052567;28;20049;-65
2022/08/21 04:53:22;;;;;;;12.40;3.75;;;;;;;19.26;63.66;101158.75;5053672;28;20056;-67
2022/08/21 04:55:51;;;;;;;10.55;3.30;;;;;;;19.41;62.92;101163.53;5053286;28;20428;-67
2022/08/21 04:58:20;;;;;;;11.70;3.00;;;;;;;19.41;63.22;101161.56;5070923;28;20057;-67
2022/08/21 05:00:52;;;;;;;10.95;3.20;;;;;;;19.48;62.85;101167.31;5064345;28;20049;-67
2022/08/21 05:03:22;;;;;;;13.25;3.63;;;;;;;19.34;62.94;101161.38;5038208;28;20049;-66
2022/08/21 05:05:50;;;;;;;14.68;3.63;;;;;;;19.28;63.61;101165.59;5053176;28;20049;-67
2022/08/21 05:08:19;;;;;;;12.50;3.58;;;;;;;19.32;63.41;101165.72;5051421;28;20132;-66
2022/08/21 05:10:47;;;;;;;12.43;3.72;;;;;;;19.21;63.67;101168.22;5052028;28;20059;-66
2022/08/21 05:13:15;;;;;;;13.00;3.63;;;;;;;19.10;63.88;101172.72;5057691;28;20053;-67
2022/08/21 05:15:42;;;;;;;11.60;3.55;;;;;;;18.98;64.44;101162.44;5069080;28;20048;-66
2022/08/21 05:18:09;;;;;;;10.98;3.55;;;;;;;18.98;64.52;101168.03;5053643;28;20056;-67
2022/08/21 05:20:36;;;;;;;14.05;3.85;;;;;;;18.85;64.44;101157.28;5052858;28;20067;-66
2022/08/21 05:23:13;;;;;;;14.70;3.58;;;;;;;18.86;64.38;101162.50;5066305;28;20040;-66
2022/08/21 05:25:41;;;;;;;14.30;4.00;;;;;;;18.89;64.67;101159.00;5070629;28;20048;-67
2022/08/21 05:28:10;;;;;;;15.32;3.83;;;;;;;18.97;64.51;101168.34;5070451;28;20594;-67
2022/08/21 05:30:46;;;;;;;13.40;3.80;;;;;;;18.78;64.65;101171.03;5036192;28;20535;-66
2022/08/21 05:33:13;;;;;;;;;;;;;;;18.69;65.28;101170.41;5069265;28;20060;-66
2022/08/21 05:35:52;;;;;;;17.38;3.83;;;;;;;18.99;63.90;101164.06;5068592;28;19921;-67
2022/08/21 05:38:19;;;;;;;13.23;3.20;;;;;;;19.11;63.37;101165.94;5052707;28;20053;-67
2022/08/21 05:40:47;;;;;;;11.60;3.13;;;;;;;19.18;63.06;101165.34;5054149;28;20037;-66
2022/08/21 05:43:15;;;;;;;11.88;3.47;;;;;;;19.20;63.08;101161.00;5068620;28;20040;-66
2022/08/21 05:45:42;;;;;;;13.35;3.75;;;;;;;19.00;63.37;101159.28;5069248;28;20064;-67
2022/08/21 05:48:19;;;;;;;12.20;3.15;;;;;;;19.04;64.02;101162.97;5089153;28;20502;-67
2022/08/21 05:50:48;;;;;;;13.77;3.45;;;;;;;19.11;62.75;101165.94;5063010;28;20060;-66
2022/08/21 05:53:17;;;;;;;10.05;2.42;;;;;;;19.22;63.06;101169.81;5050290;28;20056;-66
2022/08/21 05:55:45;;;;;;;10.38;2.80;;;;;;;19.07;62.75;101162.25;5052826;28;20052;-67
2022/08/21 05:58:16;;;;;;;9.75;2.60;;;;;;;19.24;62.87;101161.91;5052227;28;20056;-66
2022/08/21 06:00:44;;;;;;;14.57;2.78;;;;;;;19.11;63.21;101168.72;5049605;28;20618;-66
2022/08/21 06:03:15;;;;;;;9.63;2.50;;;;;;;19.12;63.38;101169.56;5051962;28;20056;-67
2022/08/21 06:05:43;;;;;;;9.20;2.80;;;;;;;19.09;63.01;101168.28;5052833;28;20060;-67
2022/08/21 06:08:10;;;;;;;14.30;3.10;;;;;;;18.93;63.79;101170.28;5053224;28;20061;-66
2022/08/21 06:10:38;;;;;;;12.25;2.97;;;;;;;19.05;63.43;101176.59;5058519;28;20041;-67
2022/08/21 06:13:05;;;;;;;12.77;3.22;;;;;;;18.92;63.85;101177.00;5071406;28;20060;-67
2022/08/21 06:15:32;;;;;;;12.73;3.00;;;;;;;19.18;63.63;101179.28;5071354;28;20064;-67
2022/08/21 06:18:00;;;;;;;9.02;2.50;;;;;;;19.53;62.89;101177.41;5073049;28;20048;-68
2022/08/21 06:20:28;;;;;;;9.80;2.85;;;;;;;19.89;62.16;101171.50;5072932;28;20048;-67
2022/08/21 06:22:55;;;;;;;12.50;3.10;;;;;;;19.76;61.13;101173.59;5067573;28;20044;-68
2022/08/21 06:25:22;;;;;;;14.13;3.13;;;;;;;19.94;60.74;101163.63;5043948;28;20053;-68
2022/08/21 06:27:50;;;;;;;13.80;3.13;;;;;;;19.97;59.95;101162.88;5046334;28;20064;-68
2022/08/21 06:30:18;;;;;;;10.80;2.88;;;;;;;20.04;60.09;101163.03;5066888;28;20063;-68
2022/08/21 06:32:51;;;;;;;12.90;2.97;;;;;;;20.09;59.69;101159.97;5050856;28;20041;-68
2022/08/21 06:35:28;;;;;;;11.43;2.97;;;;;;;20.34;58.72;101166.13;5067536;28;20060;-68
2022/08/21 06:38:03;;;;;;;7.75;2.67;;;;;;;20.24;59.06;101165.88;5041081;28;20045;-69
2022/08/21 06:40:31;;;;;;;12.70;3.58;;;;;;;20.47;58.11;101167.56;5062391;28;20057;-68
2022/08/21 06:43:10;;;;;;;14.73;3.35;;;;;;;20.49;58.10;101159.63;5060794;28;20045;-68
2022/08/21 06:45:42;;;;;;;12.18;3.47;;;;;;;20.35;58.70;101150.94;5050952;28;20092;-68
2022/08/21 06:48:09;;;;;;;13.88;3.47;;;;;;;20.38;58.44;101141.78;5060498;28;20041;-65
2022/08/21 06:50:40;;;;;;;14.85;3.30;;;;;;;20.43;58.65;101137.91;5054355;28;20504;-66
2022/08/21 06:53:10;;;;;;;13.13;3.08;;;;;;;20.68;57.63;101136.38;5038353;28;20037;-68
2022/08/21 06:55:38;;;;;;;16.05;3.33;;;;;;;20.73;58.12;101134.09;5055449;28;20492;-65
2022/08/21 06:58:06;;;;;;;10.27;2.92;;;;;;;21.03;56.95;101137.88;5053497;28;20053;-68
2022/08/21 07:00:35;;;;;;;12.80;3.08;;;;;;;20.50;57.45;101138.88;5072663;28;20602;-67
2022/08/21 07:03:02;;;;;;;13.20;3.20;;;;;;;20.52;58.43;101144.09;5053542;28;20484;-67
2022/08/21 07:05:31;;;;;;;9.82;2.95;;;;;;;20.65;57.50;101135.16;5052423;28;20067;-68
2022/08/21 07:07:58;;;;;;;15.90;3.60;;;;;;;20.75;57.60;101131.72;5055244;28;20053;-68
2022/08/21 07:10:26;;;;;;;10.63;3.20;;;;;;;20.99;56.76;101133.41;5056308;28;20052;-67
2022/08/21 07:12:54;;;;;;;11.25;3.42;;;;;;;21.04;56.77;101133.88;5055889;28;20152;-64
2022/08/21 07:15:29;;;;;;;11.70;3.10;;;;;;;21.11;56.28;101138.81;5053362;28;20071;-67
2022/08/21 07:17:58;;;;;;;13.35;3.10;;;;;;;21.31;55.49;101133.94;5050672;28;20068;-64
2022/08/21 07:20:30;;;;;;;11.30;3.67;;;;;;;21.21;54.86;101136.19;5043107;28;20467;-64
2022/08/21 07:22:59;;;;;;;10.63;3.40;;;;;;;20.87;55.88;101145.56;5048624;28;20485;-63
2022/08/21 07:25:32;;;;;;;12.18;3.60;;;;;;;20.89;56.62;101142.38;5051851;28;20057;-63
2022/08/21 07:28:00;;;;;;;;;;;;;;;20.84;55.95;101139.88;5056155;28;20147;-64
2022/08/21 07:30:27;;;;;;;11.00;3.70;;;;;;;20.93;56.44;101149.69;5069791;28;19927;-65
2022/08/21 07:32:55;;;;;;;12.88;5.70;;;;;;;21.30;55.08;101137.94;5051199;28;20052;-64
2022/08/21 07:35:24;;;;;;;15.45;3.88;;;;;;;21.35;54.83;101137.59;5066407;28;20161;-67
2022/08/21 07:37:52;;;;;;;13.05;3.65;;;;;;;21.44;54.89;101129.75;5060037;28;20057;-66
2022/08/21 07:40:19;;;;;;;11.95;3.88;;;;;;;21.50;55.49;101134.66;5050859;28;20417;-64
2022/08/21 07:42:51;;;;;;;16.60;4.35;;;;;;;21.54;55.06;101127.09;5063283;28;20041;-65
2022/08/21 07:45:20;;;;;;;13.40;3.50;;;;;;;21.64;55.09;101128.44;5067656;28;20056;-65
2022/08/21 07:47:48;;;;;;;13.25;3.47;;;;;;;21.85;54.37;101128.78;5059526;28;20048;-65
2022/08/21 07:50:20;;;;;;;14.18;3.90;;;;;;;21.95;54.31;101130.94;5062283;28;20052;-65
2022/08/21 07:52:47;;;;;;;14.90;3.78;;;;;;;22.02;53.67;101142.25;5062240;28;20464;-65
2022/08/21 07:55:17;;;;;;;10.43;3.38;;;;;;;22.25;53.67;101129.72;5075518;28;20052;-65
2022/08/21 07:57:44;;;;;;;9.85;3.15;;;;;;;22.50;52.79;101132.84;5068464;28;20068;-66
2022/08/21 08:00:16;;;;;;;11.27;3.70;;;;;;;22.54;52.79;101132.88;5051636;28;20057;-68
2022/08/21 08:02:46;;;;;;;10.32;3.10;;;;;;;22.51;52.35;101133.66;5051326;28;20064;-64
2022/08/21 08:05:13;;;;;;;;;;;;;;;22.52;52.48;101124.03;5056459;28;20071;-70
2022/08/21 08:07:40;;;;;;;14.07;4.10;;;;;;;22.73;52.20;101121.47;5068085;28;19920;-66
2022/08/21 08:10:09;;;;;;;11.05;2.80;;;;;;;22.93;51.81;101117.25;5035116;28;20052;-66
2022/08/21 08:12:38;;;;;;;11.73;3.33;;;;;;;22.90;51.22;101118.03;5064519;28;20456;-66
2022/08/21 08:15:10;;;;;;;14.88;3.35;;;;;;;23.24;50.71;101117.53;5073734;28;20048;-68
2022/08/21 08:17:38;;;;;;;11.15;3.42;;;;;;;23.17;51.00;101108.25;5067104;28;20059;-68
2022/08/21 08:20:07;;;;;;;11.73;3.20;;;;;;;23.32;50.14;101112.81;5074019;28;20048;-67
2022/08/21 08:22:35;;;;;;;9.13;3.20;;;;;;;23.23;50.01;101112.31;5063716;28;20049;-66
2022/08/21 08:25:04;;;;;;;8.77;3.28;;;;;;;23.21;50.50;101109.91;5062311;28;20049;-67
2022/08/21 08:27:36;;;;;;;15.20;3.38;;;;;;;23.41;49.44;101104.88;5039156;28;20057;-67
2022/08/21 08:30:05;;;;;;;13.75;3.42;;;;;;;23.56;49.40;101106.56;5064492;28;20068;-67
2022/08/21 08:32:34;;;;;;;16.33;3.40;;;;;;;23.29;49.26;101103.16;5066572;28;20055;-66
2022/08/21 08:35:03;;;;;;;11.98;4.00;;;;;;;23.38;49.21;101102.81;5054005;28;20052;-67
2022/08/21 08:37:30;;;;;;;11.77;3.30;;;;;;;23.43;49.13;101108.88;5066969;28;20476;-67
2022/08/21 08:40:01;;;;;;;10.27;3.25;;;;;;;23.68;48.77;101099.78;5062574;28;20048;-68
2022/08/21 08:42:33;;;;;;;11.40;3.55;;;;;;;23.76;48.08;101105.09;5053983;28;20045;-63
2022/08/21 08:45:04;;;;;;;10.07;3.10;;;;;;;23.84;48.10;101103.09;5050078;28;20048;-71
2022/08/21 08:47:35;;;;;;;12.00;3.60;;;;;;;23.88;47.64;101101.94;5053265;28;20085;-70
2022/08/21 08:50:07;;;;;;;11.95;2.85;;;;;;;23.75;47.71;101097.84;5056456;28;20049;-69
2022/08/21 08:53:13;;;;;;;10.52;2.92;;;;;;;23.90;47.62;101104.34;5055207;28;20059;-68
2022/08/21 08:55:43;;;;;;;17.55;3.47;;;;;;;23.79;47.41;101100.66;5067148;28;20431;-68
2022/08/21 08:58:25;;;;;;;21.70;3.40;;;;;;;23.68;47.40;101094.97;5067953;28;20041;-68
2022/08/21 09:00:54;;;;;;;16.73;3.20;;;;;;;23.88;46.97;101093.50;5045512;28;20057;-70
2022/08/21 09:03:23;;;;;;;11.95;3.50;;;;;;;24.02;46.99;101092.78;5053756;28;20107;-69
2022/08/21 09:05:56;;;;;;;13.47;3.17;;;;;;;24.17;47.36;101094.44;5064403;28;20045;-70
2022/08/21 09:08:49;;;;;;;13.43;3.47;;;;;;;23.80;47.03;101088.22;5049381;28;20048;-69
2022/08/21 09:11:27;;;;;;;10.60;3.10;;;;;;;23.71;47.39;101082.94;5045859;28;20066;-70
2022/08/21 09:14:21;;;;;;;11.95;3.55;;;;;;;23.96;45.79;101080.25;5044600;28;20041;-67
2022/08/21 09:17:02;;;;;;;13.48;3.20;;;;;;;23.93;47.02;101075.41;5064697;28;20655;-66
2022/08/21 09:19:44;;;;;;;13.10;3.22;;;;;;;24.02;47.09;101068.28;5049844;28;20059;-66
2022/08/21 09:22:30;;;;;;;11.13;3.45;;;;;;;24.32;46.04;101065.16;5031789;28;20489;-66
2022/08/21 09:25:21;;;;;;;10.95;3.35;;;;;;;24.46;45.83;101056.75;5051361;28;20053;-66
2022/08/21 09:27:50;;;;;;;8.43;3.10;;;;;;;24.41;45.79;101057.94;5068591;28;20045;-67
2022/08/21 09:30:19;;;;;;;15.20;3.28;;;;;;;24.40;45.62;101061.16;5047675;28;20052;-66
2022/08/21 09:32:46;;;;;;;8.82;2.97;;;;;;;24.20;45.66;101062.72;5047670;28;20042;-65
2022/08/21 09:35:17;;;;;;;11.55;3.15;;;;;;;24.23;45.68;101056.28;5046481;28;20044;-66
2022/08/21 09:37:58;;;;;;;11.88;3.58;;;;;;;24.34;45.53;101065.53;5071580;28;20483;-65
2022/08/21 09:40:35;;;;;;;11.38;3.40;;;;;;;24.41;45.52;101068.38;5055809;28;20515;-67
2022/08/21 09:43:06;;;;;;;11.48;3.33;;;;;;;24.45;46.13;101067.19;5051319;28;20872;-68
2022/08/21 09:45:35;;;;;;;11.75;3.05;;;;;;;24.53;45.51;101070.81;5046695;28;20054;-68
2022/08/21 09:48:23;;;;;;;10.65;2.78;;;;;;;24.50;45.03;101077.25;5051057;28;20060;-69
2022/08/21 09:51:12;;;;;;;11.18;3.28;;;;;;;24.80;44.99;101077.75;5053753;28;20059;-68
2022/08/21 09:54:03;;;;;;;12.10;2.90;;;;;;;24.85;44.40;101076.53;5054448;28;20051;-70
2022/08/21 09:59:26;;;;;;;13.25;3.78;;;;;;;24.85;44.03;101057.63;5045357;28;20119;-68
2022/08/21 10:01:54;;;;;;;13.13;3.47;;;;;;;25.02;44.38;101050.38;5050927;28;20052;-68
2022/08/21 10:04:33;;;;;;;13.48;3.00;;;;;;;25.20;43.30;101045.53;5049823;28;20033;-68
2022/08/21 10:07:12;;;;;;;12.23;3.53;;;;;;;24.80;44.71;101041.13;5053408;28;20053;-68
2022/08/21 10:09:41;;;;;;;12.10;3.47;;;;;;;24.22;45.20;101038.56;5060228;28;20299;-68
2022/08/21 10:12:23;;;;;;;11.93;3.42;;;;;;;24.31;45.48;101030.56;5067059;28;20052;-69
2022/08/21 10:15:02;;;;;;;12.10;3.22;;;;;;;24.58;44.80;101028.19;5051600;28;20048;-68
2022/08/21 10:17:51;;;;;;;11.48;3.30;;;;;;;24.56;44.39;101039.06;5052220;28;20057;-68
2022/08/21 10:20:24;;;;;;;9.70;2.92;;;;;;;24.87;43.54;101029.84;5052050;28;20427;-69
2022/08/21 10:23:20;;;;;;;8.85;2.97;;;;;;;25.08;42.97;101020.56;5049949;28;20053;-68
2022/08/21 10:25:55;;;;;;;12.57;3.05;;;;;;;25.41;42.40;101011.69;5071340;28;20060;-69
2022/08/21 10:29:11;;;;;;;11.35;2.72;;;;;;;25.02;43.14;101002.47;5055665;28;20052;-68
2022/08/21 10:32:01;;;;;;;9.13;2.72;;;;;;;24.88;43.39;101003.25;5068320;28;20059;-68
2022/08/21 10:34:41;;;;;;;9.52;2.88;;;;;;;24.49;43.63;101006.06;5054056;28;20056;-69
2022/08/21 10:37:21;;;;;;;10.68;2.72;;;;;;;24.45;44.30;101004.44;5043946;28;20057;-67
2022/08/21 10:40:03;;;;;;;10.52;3.20;;;;;;;24.58;44.48;101010.47;5053726;28;20444;-68
2022/08/21 10:42:57;;;;;;;15.43;2.78;;;;;;;24.43;44.66;101002.00;5054394;28;20051;-69
2022/08/21 10:45:51;;;;;;;8.38;2.55;;;;;;;25.12;43.67;100993.97;5045730;28;20061;-69
2022/08/21 10:48:35;;;;;;;10.05;3.00;;;;;;;25.28;42.90;100990.75;5048321;28;20065;-69
2022/08/21 10:51:07;;;;;;;10.40;2.80;;;;;;;25.37;42.72;100985.50;5058841;28;20609;-69
2022/08/21 10:53:59;;;;;;;10.75;3.40;;;;;;;25.47;42.36;100984.69;5049799;28;20400;-69
2022/08/21 10:56:29;;;;;;;8.68;2.70;;;;;;;25.30;43.03;100988.28;5052579;28;20053;-68
2022/08/21 10:59:15;;;;;;;10.15;2.58;;;;;;;25.48;42.69;100991.91;5047897;28;20151;-69
2022/08/21 11:02:03;;;;;;;11.25;2.72;;;;;;;25.27;42.51;100987.13;5067690;28;20060;-69
2022/08/21 11:04:48;;;;;;;8.07;2.78;;;;;;;25.63;41.79;100984.22;5055381;28;20032;-69
2022/08/21 11:07:36;;;;;;;8.57;2.75;;;;;;;25.16;42.73;100979.88;5065494;28;20059;-68
2022/08/21 11:10:23;;;;;;;7.97;2.80;;;;;;;25.14;43.01;100985.13;5052079;28;20505;-70
2022/08/21 11:12:58;;;;;;;8.10;2.78;;;;;;;25.10;42.52;100985.13;5053805;28;20063;-69
2022/08/21 11:15:48;;;;;;;11.80;3.25;;;;;;;25.46;42.36;100988.69;5052957;28;20041;-68
2022/08/21 11:18:15;;;;;;;8.38;2.58;;;;;;;25.58;41.84;100993.09;5061700;28;20064;-69
2022/08/21 11:20:51;;;;;;;9.68;3.10;;;;;;;25.79;41.71;101004.28;5049558;28;20049;-69
2022/08/21 11:23:24;;;;;;;10.15;2.70;;;;;;;25.82;41.94;101001.44;5065014;28;20076;-69
2022/08/21 11:26:02;;;;;;;11.10;2.40;;;;;;;25.86;41.29;101009.91;5054968;28;20053;-69
2022/08/21 11:28:38;;;;;;;9.77;2.30;;;;;;;25.47;42.06;101001.59;5054284;28;20052;-69
2022/08/21 11:31:12;;;;;;;8.38;2.65;;;;;;;25.55;42.37;101000.34;5055605;28;20060;-69
2022/08/21 11:33:46;;;;;;;9.25;2.60;;;;;;;25.77;41.51;101003.91;5050917;28;20052;-69
2022/08/21 11:36:38;;;;;;;7.63;2.38;;;;;;;26.04;41.25;101007.84;5034603;28;20052;-69
2022/08/21 11:39:56;;;;;;;7.38;2.55;;;;;;;26.24;41.23;101006.13;5064156;28;20067;-69
2022/08/21 11:42:36;;;;;;;8.93;2.70;;;;;;;26.18;41.73;101002.13;5060016;28;20512;-68
2022/08/21 11:45:32;;;;;;;;;;;;;;;26.66;39.99;101003.81;5059720;28;20060;-69